createdAt,value
2022-09-26T00:04:29.081Z,14.97
2022-09-26T00:09:34.371Z,15.79
2022-09-26T00:14:36.794Z,14.75
2022-09-26T00:19:39.243Z,13.19
2022-09-26T00:24:41.713Z,14.56
2022-09-26T00:29:44.099Z,15.61
2022-09-26T00:34:46.498Z,15.21
2022-09-26T00:39:48.897Z,13.20
2022-09-26T00:44:54.558Z,12.80
2022-09-26T00:50:02.225Z,14.55
2022-09-26T00:55:06.126Z,14.94
2022-09-26T01:00:10.240Z,12.96
2022-09-26T01:05:14.410Z,12.15
2022-09-26T01:10:17.029Z,13.94
2022-09-26T01:16:13.564Z,14.91
2022-09-26T01:21:28.334Z,13.78
2022-09-26T01:26:34.265Z,11.90
2022-09-26T01:31:38.613Z,12.98
2022-09-26T01:36:44.442Z,14.41
2022-09-26T01:41:56.782Z,14.11
2022-09-26T01:47:00.135Z,11.93
2022-09-26T01:52:05.748Z,12.13
2022-09-26T01:57:11.001Z,13.82
2022-09-26T02:02:19.261Z,14.46
2022-09-26T02:07:26.028Z,12.86
2022-09-26T02:12:32.810Z,11.53
2022-09-26T02:17:39.562Z,13.08
2022-09-26T02:22:42.213Z,14.12
2022-09-26T02:27:44.627Z,12.72
2022-09-26T02:32:47.086Z,11.11
2022-09-26T02:37:49.504Z,12.44
2022-09-26T02:43:01.799Z,13.78
2022-09-26T02:48:14.125Z,13.38
2022-09-26T02:53:26.842Z,11.18
2022-09-26T02:58:38.834Z,12.14
2022-09-26T03:03:48.064Z,13.61
2022-09-26T03:08:51.855Z,12.70
2022-09-26T03:13:56.078Z,10.79
2022-09-26T03:19:01.292Z,11.46
2022-09-26T03:24:03.848Z,13.13
2022-09-26T03:29:06.506Z,13.13
2022-09-26T03:34:09.028Z,11.10
2022-09-26T03:39:11.637Z,10.94
2022-09-26T03:44:15.713Z,12.69
2022-09-26T03:49:18.146Z,13.51
2022-09-26T03:54:20.579Z,12.77
2022-09-26T03:59:23.035Z,10.86
2022-09-26T04:04:25.883Z,11.81
2022-09-26T04:09:28.377Z,13.23
2022-09-26T04:14:31.561Z,12.70
2022-09-26T04:19:33.992Z,10.81
2022-09-26T04:24:36.703Z,11.81
2022-09-26T04:29:39.163Z,13.33
2022-09-26T04:34:41.567Z,13.25
2022-09-26T04:39:43.954Z,11.35
2022-09-26T04:44:48.114Z,10.94
2022-09-26T04:49:50.612Z,12.99
2022-09-26T04:54:53.120Z,14.12
2022-09-26T05:00:14.368Z,13.04
2022-09-26T05:05:16.845Z,11.47
2022-09-26T05:10:19.433Z,11.97
2022-09-26T05:15:21.878Z,14.19
2022-09-26T05:20:24.577Z,15.30
2022-09-26T05:25:32.195Z,14.21
2022-09-26T05:30:35.027Z,12.85
2022-09-26T05:40:21.247Z,15.64
2022-09-26T05:45:23.794Z,15.95
2022-09-26T05:50:26.219Z,14.21
2022-09-26T05:55:29.290Z,13.14
2022-09-26T06:00:31.752Z,14.89
2022-09-26T06:05:34.611Z,16.63
2022-09-26T06:10:38.645Z,15.43
2022-09-26T06:15:43.132Z,14.27
2022-09-26T06:20:45.550Z,14.49
2022-09-26T06:25:48.018Z,16.97
2022-09-26T06:30:50.434Z,16.96
2022-09-26T06:35:55.756Z,15.53
2022-09-26T06:40:58.248Z,14.67
2022-09-26T06:46:00.929Z,14.63
2022-09-26T06:51:03.747Z,16.91
2022-09-26T06:56:06.501Z,18.35
2022-09-26T07:01:09.140Z,17.60
2022-09-26T07:06:11.661Z,16.49
2022-09-26T07:16:37.452Z,16.32
2022-09-26T07:21:39.949Z,18.88
2022-09-26T07:26:42.403Z,19.68
2022-09-26T07:31:45.407Z,18.74
2022-09-26T07:36:47.871Z,18.50
2022-09-26T07:41:50.458Z,18.59
2022-09-26T07:46:55.850Z,18.68
2022-09-26T07:52:00.574Z,18.95
2022-09-26T07:57:04.811Z,19.25
2022-09-26T08:02:20.782Z,20.29
2022-09-26T08:07:24.532Z,20.90
2022-09-26T08:12:27.110Z,20.25
2022-09-26T08:17:32.428Z,20.59
2022-09-26T08:22:34.862Z,20.06
2022-09-26T08:27:37.327Z,19.46
2022-09-26T08:32:39.736Z,19.02
2022-09-26T08:37:42.134Z,18.83
2022-09-26T08:42:45.972Z,18.75
2022-09-26T08:47:53.227Z,18.86
2022-09-26T08:53:01.440Z,18.97
2022-09-26T08:58:08.338Z,19.07
2022-09-26T09:03:12.901Z,19.29
2022-09-26T09:08:36.790Z,19.52
2022-09-26T09:13:46.108Z,19.54
2022-09-26T09:18:48.641Z,19.87
2022-09-26T09:23:57.618Z,21.24
2022-09-26T09:29:01.001Z,20.74
2022-09-26T09:34:06.726Z,20.55
2022-09-26T09:39:13.401Z,20.43
2022-09-26T09:44:25.481Z,20.29
2022-09-26T09:49:28.023Z,20.01
2022-09-26T09:54:33.399Z,19.81
2022-09-26T09:59:38.757Z,19.67
2022-09-26T10:04:44.368Z,19.57
2022-09-26T10:09:51.763Z,19.37
2022-09-26T10:15:17.294Z,19.28
2022-09-26T10:20:40.741Z,19.14
2022-09-26T10:25:47.101Z,19.12
2022-09-26T10:30:50.629Z,19.25
2022-09-26T10:35:59.528Z,19.40
2022-09-26T10:41:03.408Z,19.56
2022-09-26T10:46:06.130Z,19.65
2022-09-26T10:51:09.597Z,19.73
2022-09-26T10:56:16.847Z,19.77
2022-09-26T11:01:22.823Z,19.98
2022-09-26T11:06:28.218Z,20.13
2022-09-26T11:11:33.675Z,20.27
2022-09-26T11:16:38.675Z,20.46
2022-09-26T11:21:42.138Z,20.65
2022-09-26T11:26:49.074Z,20.98
2022-09-26T11:31:52.015Z,21.08
2022-09-26T11:36:58.485Z,21.16
2022-09-26T11:42:03.976Z,21.08
2022-09-26T11:47:09.446Z,21.27
2022-09-26T11:52:14.465Z,21.56
2022-09-26T11:57:21.418Z,21.66
2022-09-26T12:02:26.912Z,21.71
2022-09-26T12:07:32.766Z,21.59
2022-09-26T12:12:41.811Z,21.46
2022-09-26T12:17:47.815Z,21.55
2022-09-26T12:22:55.967Z,21.63
2022-09-26T12:28:09.129Z,21.69
2022-09-26T12:33:14.648Z,21.54
2022-09-26T12:38:20.434Z,21.57
2022-09-26T12:43:31.461Z,21.74
2022-09-26T12:48:37.751Z,21.95
2022-09-26T12:53:43.074Z,22.00
2022-09-26T12:59:06.943Z,21.86
2022-09-26T13:04:11.733Z,21.67
2022-09-26T13:09:15.972Z,21.44
2022-09-26T13:14:27.525Z,21.29
2022-09-26T13:19:34.582Z,21.11
2022-09-26T13:24:40.957Z,21.18
2022-09-26T13:29:46.142Z,21.32
2022-09-26T13:34:51.677Z,21.39
2022-09-26T13:39:59.926Z,21.36
2022-09-26T13:45:05.278Z,21.47
2022-09-26T13:50:12.591Z,21.45
2022-09-26T13:55:19.234Z,21.20
2022-09-26T14:00:29.787Z,20.87
2022-09-26T14:05:35.119Z,20.59
2022-09-26T14:10:39.670Z,20.31
2022-09-26T14:15:45.050Z,20.07
2022-09-26T14:20:55.002Z,19.92
2022-09-26T14:26:04.830Z,19.88
2022-09-26T14:31:11.402Z,20.07
2022-09-26T14:36:16.794Z,20.95
2022-09-26T14:41:20.775Z,22.09
2022-09-26T14:46:24.285Z,22.46
2022-09-26T14:51:30.357Z,22.63
2022-09-26T14:56:41.172Z,23.00
2022-09-26T15:01:44.385Z,22.88
2022-09-26T15:06:48.764Z,22.24
2022-09-26T15:11:55.153Z,22.13
2022-09-26T15:16:59.086Z,22.25
2022-09-26T15:22:04.523Z,21.80
2022-09-26T15:27:11.018Z,21.15
2022-09-26T15:32:19.915Z,20.67
2022-09-26T15:37:23.443Z,20.29
2022-09-26T15:42:28.822Z,19.86
2022-09-26T15:47:31.715Z,19.34
2022-09-26T15:52:35.139Z,18.83
2022-09-26T15:57:37.627Z,18.35
2022-09-26T16:02:40.920Z,17.87
2022-09-26T16:07:47.828Z,17.39
2022-09-26T16:12:50.340Z,16.88
2022-09-26T16:17:53.987Z,16.40
2022-09-26T16:23:04.360Z,15.98
2022-09-26T16:28:10.260Z,15.59
2022-09-26T16:33:15.980Z,15.24
2022-09-26T16:38:22.496Z,14.90
2022-09-26T16:43:27.126Z,14.61
2022-09-26T16:48:32.482Z,14.33
2022-09-26T16:53:34.971Z,14.49
2022-09-26T16:58:37.404Z,16.81
2022-09-26T17:03:42.357Z,18.35
2022-09-26T17:08:44.744Z,19.28
2022-09-26T17:13:49.404Z,18.61
2022-09-26T17:18:51.840Z,17.20
2022-09-26T17:23:54.332Z,16.42
2022-09-26T17:28:58.063Z,17.72
2022-09-26T17:34:01.963Z,19.29
2022-09-26T17:39:07.699Z,19.54
2022-09-26T17:44:10.200Z,17.93
2022-09-26T17:49:13.659Z,16.81
2022-09-26T17:54:17.589Z,16.07
2022-09-26T17:59:23.174Z,15.60
2022-09-26T18:04:27.239Z,17.20
2022-09-26T18:09:32.321Z,18.86
2022-09-26T18:14:35.379Z,19.04
2022-09-26T18:19:38.177Z,17.44
2022-09-26T18:24:41.475Z,16.41
2022-09-26T18:29:47.222Z,15.72
2022-09-26T18:34:49.651Z,15.24
2022-09-26T18:39:55.737Z,14.89
2022-09-26T18:45:04.237Z,16.50
2022-09-26T18:50:07.082Z,18.33
2022-09-26T18:55:19.904Z,18.82
2022-09-26T19:00:22.334Z,17.28
2022-09-26T19:05:26.164Z,16.25
2022-09-26T19:10:29.489Z,15.62
2022-09-26T19:15:32.055Z,15.13
2022-09-26T19:20:34.521Z,14.76
2022-09-26T19:25:37.243Z,14.84
2022-09-26T19:30:39.902Z,17.08
2022-09-26T19:35:42.746Z,18.58
2022-09-26T19:40:48.831Z,18.93
2022-09-26T19:45:53.565Z,17.43
2022-09-26T19:50:56.127Z,16.39
2022-09-26T19:56:00.334Z,15.79
2022-09-26T20:01:11.573Z,17.23
2022-09-26T20:06:46.357Z,18.88
2022-09-26T20:11:48.862Z,18.66
2022-09-26T20:17:03.103Z,16.99
2022-09-26T20:22:07.406Z,15.96
2022-09-26T20:27:15.239Z,17.14
2022-09-26T20:32:17.727Z,18.83
2022-09-26T20:37:21.124Z,18.18
2022-09-26T20:42:27.942Z,16.76
2022-09-26T20:47:31.125Z,15.97
2022-09-26T20:52:33.587Z,15.47
2022-09-26T20:57:36.206Z,16.67
2022-09-26T21:02:39.237Z,18.48
2022-09-26T21:07:41.942Z,18.46
2022-09-26T21:12:44.330Z,16.70
2022-09-26T21:17:47.351Z,16.86
2022-09-26T21:22:50.436Z,18.54
2022-09-26T21:27:57.245Z,19.35
2022-09-26T21:33:00.092Z,18.18
2022-09-26T21:38:02.680Z,16.80
2022-09-26T21:43:08.854Z,16.13
2022-09-26T21:48:12.240Z,17.75
2022-09-26T21:53:16.904Z,19.07
2022-09-26T21:58:22.382Z,18.75
2022-09-26T22:03:24.763Z,17.02
2022-09-26T22:08:27.187Z,15.98
2022-09-26T22:13:29.902Z,17.27
2022-09-26T22:18:32.933Z,18.56
2022-09-26T22:23:35.509Z,19.17
2022-09-26T22:28:38.007Z,18.38
2022-09-26T22:33:43.465Z,16.55
2022-09-26T22:38:46.239Z,16.40
2022-09-26T22:43:49.187Z,18.18
2022-09-26T22:48:51.855Z,18.99
2022-09-26T22:53:54.390Z,17.90
2022-09-26T22:58:56.821Z,16.35
2022-09-26T23:04:00.305Z,16.85
2022-09-26T23:09:02.783Z,18.40
2022-09-26T23:14:05.225Z,18.51
2022-09-26T23:19:07.668Z,16.74
2022-09-26T23:24:10.067Z,16.62
2022-09-26T23:29:13.252Z,18.15
2022-09-26T23:34:15.684Z,18.79
2022-09-26T23:39:18.663Z,17.53
2022-09-26T23:44:21.098Z,15.97
2022-09-26T23:49:23.527Z,17.02
2022-09-26T23:54:25.923Z,18.37
2022-09-26T23:59:28.377Z,18.60
